createdAt,value
2023-04-15T00:00:38.733Z,2.70
2023-04-15T00:03:06.376Z,2.40
2023-04-15T00:05:33.393Z,2.57
2023-04-15T00:08:01.513Z,2.73
2023-04-15T00:10:28.325Z,2.30
2023-04-15T00:12:55.068Z,2.40
2023-04-15T00:15:22.633Z,2.20
2023-04-15T00:17:51.175Z,2.23
2023-04-15T00:20:17.892Z,2.27
2023-04-15T00:22:44.620Z,2.00
2023-04-15T00:25:11.734Z,2.10
2023-04-15T00:27:38.892Z,2.00
2023-04-15T00:30:06.023Z,2.10
2023-04-15T00:32:32.906Z,1.63
2023-04-15T00:34:59.659Z,1.87
2023-04-15T00:37:26.415Z,2.00
2023-04-15T00:39:53.118Z,1.90
2023-04-15T00:42:20.277Z,1.80
2023-04-15T00:44:47.007Z,1.87
2023-04-15T00:47:13.751Z,2.37
2023-04-15T00:49:40.520Z,1.83
2023-04-15T00:52:07.440Z,2.17
2023-04-15T00:54:34.206Z,2.13
2023-04-15T00:57:00.996Z,2.10
2023-04-15T00:59:27.971Z,1.97
2023-04-15T01:01:54.867Z,1.90
2023-04-15T01:04:21.752Z,1.97
2023-04-15T01:09:29.931Z,1.90
2023-04-15T01:11:57.300Z,1.60
2023-04-15T01:14:25.395Z,1.93
2023-04-15T01:16:52.957Z,1.70
2023-04-15T01:19:19.946Z,2.30
2023-04-15T01:21:47.212Z,1.30
2023-04-15T01:24:16.625Z,1.87
2023-04-15T01:26:44.535Z,1.60
2023-04-15T01:29:11.742Z,1.80
2023-04-15T01:31:38.823Z,1.53
2023-04-15T01:34:24.191Z,1.57
2023-04-15T01:37:12.606Z,1.60
2023-04-15T01:39:39.706Z,1.40
2023-04-15T01:42:06.379Z,1.80
2023-04-15T01:44:34.343Z,1.70
2023-04-15T01:47:02.432Z,2.00
2023-04-15T01:49:30.360Z,1.50
2023-04-15T01:51:58.335Z,1.47
2023-04-15T01:54:27.573Z,1.97
2023-04-15T01:56:56.950Z,1.40
2023-04-15T01:59:26.362Z,1.50
2023-04-15T02:01:56.416Z,1.40
2023-04-15T02:04:24.593Z,1.73
2023-04-15T02:06:53.095Z,1.47
2023-04-15T02:09:23.034Z,1.83
2023-04-15T02:11:51.725Z,1.57
2023-04-15T02:14:19.728Z,2.10
2023-04-15T02:16:48.451Z,1.90
2023-04-15T02:19:17.817Z,2.30
2023-04-15T02:21:45.741Z,2.40
2023-04-15T02:24:13.836Z,2.73
2023-04-15T02:26:42.740Z,3.10
2023-04-15T02:29:11.020Z,3.20
2023-04-15T02:31:40.795Z,3.03
2023-04-15T02:34:08.849Z,3.30
2023-04-15T02:36:37.387Z,3.70
2023-04-15T02:39:06.813Z,3.63
2023-04-15T02:41:35.730Z,3.40
2023-04-15T02:44:05.310Z,4.83
2023-04-15T02:46:33.374Z,4.30
2023-04-15T02:49:03.179Z,4.60
2023-04-15T02:51:32.478Z,4.37
2023-04-15T02:54:00.494Z,4.50
2023-04-15T02:56:28.923Z,5.13
2023-04-15T02:58:57.448Z,5.27
2023-04-15T03:01:26.485Z,5.67
2023-04-15T03:03:54.540Z,5.40
2023-04-15T03:06:22.825Z,5.03
2023-04-15T03:08:51.757Z,4.80
2023-04-15T03:11:20.150Z,5.27
2023-04-15T03:13:48.266Z,5.30
2023-04-15T03:16:33.399Z,4.70
2023-04-15T03:19:02.012Z,6.00
2023-04-15T03:21:31.005Z,4.93
2023-04-15T03:23:59.116Z,4.50
2023-04-15T03:26:30.755Z,4.53
2023-04-15T03:29:02.690Z,4.10
2023-04-15T03:31:31.310Z,4.27
2023-04-15T03:33:59.344Z,3.80
2023-04-15T03:36:29.860Z,3.43
2023-04-15T03:38:58.096Z,3.87
2023-04-15T03:41:26.732Z,3.13
2023-04-15T03:43:54.877Z,3.60
2023-04-15T03:46:23.898Z,2.87
2023-04-15T03:48:51.939Z,3.23
2023-04-15T03:51:20.016Z,3.13
2023-04-15T03:53:48.198Z,3.20
2023-04-15T03:56:16.290Z,2.93
2023-04-15T03:58:44.401Z,2.63
2023-04-15T04:01:12.372Z,2.97
2023-04-15T04:03:41.123Z,2.60
2023-04-15T04:06:09.294Z,2.43
2023-04-15T04:08:37.632Z,2.50
2023-04-15T04:11:05.652Z,2.60
2023-04-15T04:13:33.845Z,2.60
2023-04-15T04:16:02.111Z,2.80
2023-04-15T04:18:30.596Z,2.73
2023-04-15T04:20:58.749Z,2.27
2023-04-15T04:23:27.500Z,2.57
2023-04-15T04:25:55.624Z,2.87
2023-04-15T04:28:23.932Z,3.93
2023-04-15T04:30:52.028Z,2.93
2023-04-15T04:33:20.328Z,3.70
2023-04-15T04:35:48.278Z,3.60
2023-04-15T04:38:16.533Z,3.47
2023-04-15T04:40:45.584Z,3.67
2023-04-15T04:43:13.540Z,3.20
2023-04-15T04:45:42.122Z,3.20
2023-04-15T04:48:10.732Z,3.07
2023-04-15T04:50:38.754Z,3.13
2023-04-15T04:53:06.792Z,3.23
2023-04-15T04:55:37.537Z,2.60
2023-04-15T04:58:05.446Z,2.80
2023-04-15T05:00:33.896Z,2.80
2023-04-15T05:03:02.515Z,2.73
2023-04-15T05:05:30.569Z,2.80
2023-04-15T05:07:58.667Z,2.53
2023-04-15T05:10:27.504Z,2.97
2023-04-15T05:12:55.618Z,2.73
2023-04-15T05:15:23.617Z,2.70
2023-04-15T05:17:51.884Z,2.87
2023-04-15T05:20:20.155Z,3.40
2023-04-15T05:22:48.160Z,3.50
2023-04-15T05:25:17.004Z,2.83
2023-04-15T05:27:45.050Z,3.03
2023-04-15T05:30:13.852Z,3.00
2023-04-15T05:32:41.896Z,3.50
2023-04-15T05:35:09.901Z,3.83
2023-04-15T05:37:37.863Z,3.60
2023-04-15T05:40:06.232Z,3.50
2023-04-15T05:42:35.168Z,3.23
2023-04-15T05:45:05.720Z,3.53
2023-04-15T05:47:33.824Z,3.10
2023-04-15T05:50:01.874Z,3.60
2023-04-15T05:52:29.792Z,3.50
2023-04-15T05:54:57.787Z,3.43
2023-04-15T05:57:25.880Z,4.07
2023-04-15T05:59:54.288Z,3.47
2023-04-15T06:02:23.081Z,3.47
2023-04-15T06:04:51.033Z,3.77
2023-04-15T06:07:19.004Z,4.00
2023-04-15T06:09:46.952Z,4.07
2023-04-15T06:12:15.108Z,3.27
2023-04-15T06:14:43.125Z,3.80
2023-04-15T06:17:11.167Z,3.83
2023-04-15T06:19:39.583Z,3.50
2023-04-15T06:22:08.149Z,3.43
2023-04-15T06:24:37.249Z,3.80
2023-04-15T06:27:05.322Z,3.23
2023-04-15T06:29:33.297Z,3.83
2023-04-15T06:32:01.781Z,3.40
2023-04-15T06:34:29.699Z,3.60
2023-04-15T06:36:57.724Z,3.10
2023-04-15T06:39:25.850Z,3.87
2023-04-15T06:41:53.882Z,3.50
2023-04-15T06:44:23.109Z,3.53
2023-04-15T06:46:51.154Z,3.40
2023-04-15T06:49:19.135Z,4.00
2023-04-15T06:51:47.040Z,3.57
2023-04-15T06:54:15.438Z,3.87
2023-04-15T06:56:44.098Z,3.50
2023-04-15T06:59:12.015Z,3.30
2023-04-15T07:01:43.006Z,4.10
2023-04-15T07:04:11.524Z,3.30
2023-04-15T07:06:39.842Z,3.23
2023-04-15T07:09:08.867Z,3.33
2023-04-15T07:11:36.931Z,3.23
2023-04-15T07:14:04.991Z,3.37
2023-04-15T07:16:33.026Z,3.00
2023-04-15T07:19:01.337Z,3.70
2023-04-15T07:21:29.759Z,3.33
2023-04-15T07:23:58.917Z,3.57
2023-04-15T07:26:27.435Z,3.43
2023-04-15T07:28:55.809Z,3.77
2023-04-15T07:31:23.878Z,3.90
2023-04-15T07:33:51.814Z,4.10
2023-04-15T07:36:19.868Z,4.00
2023-04-15T07:38:47.871Z,3.97
2023-04-15T07:41:15.966Z,3.83
2023-04-15T07:43:43.909Z,4.90
2023-04-15T07:46:12.297Z,4.20
2023-04-15T07:48:41.742Z,3.67
2023-04-15T07:51:11.059Z,4.50
2023-04-15T07:53:39.068Z,4.27
2023-04-15T07:56:07.179Z,4.77
2023-04-15T07:58:35.168Z,5.10
2023-04-15T08:01:04.709Z,5.83
2023-04-15T08:03:33.301Z,5.57
2023-04-15T08:06:01.375Z,6.10
2023-04-15T08:08:29.400Z,5.80
2023-04-15T08:10:58.305Z,4.90
2023-04-15T08:13:26.577Z,5.63
2023-04-15T08:16:13.680Z,4.87
2023-04-15T08:18:42.129Z,5.40
2023-04-15T08:21:10.443Z,5.93
2023-04-15T08:23:39.289Z,6.50
2023-04-15T08:26:07.821Z,6.73
2023-04-15T08:28:36.365Z,6.80
2023-04-15T08:31:04.530Z,5.97
2023-04-15T08:33:32.581Z,6.67
2023-04-15T08:36:00.532Z,7.07
2023-04-15T08:38:28.489Z,6.80
2023-04-15T08:40:58.126Z,6.13
2023-04-15T08:43:33.743Z,7.40
2023-04-15T08:46:02.156Z,7.50
2023-04-15T08:48:32.752Z,6.33
2023-04-15T08:51:01.025Z,6.83
2023-04-15T08:53:29.894Z,7.13
2023-04-15T08:56:00.191Z,7.30
2023-04-15T08:58:28.594Z,7.77
2023-04-15T09:00:57.082Z,6.57
2023-04-15T09:03:25.310Z,6.97
2023-04-15T09:05:53.941Z,6.90
2023-04-15T09:08:22.465Z,6.80
2023-04-15T09:10:50.768Z,6.50
2023-04-15T09:13:18.915Z,4.90
2023-04-15T09:15:46.975Z,5.00
2023-04-15T09:18:27.878Z,5.60
2023-04-15T09:20:56.245Z,4.83
2023-04-15T09:23:24.211Z,4.07
2023-04-15T09:25:52.171Z,4.17
2023-04-15T09:28:24.267Z,4.70
2023-04-15T09:30:53.266Z,3.87
2023-04-15T09:33:21.912Z,4.73
2023-04-15T09:36:11.162Z,3.30
2023-04-15T09:38:54.328Z,3.30
2023-04-15T09:41:22.392Z,3.73
2023-04-15T09:43:50.646Z,4.10
2023-04-15T09:46:18.882Z,3.63
2023-04-15T09:48:47.110Z,4.67
2023-04-15T09:51:15.620Z,4.63
2023-04-15T09:53:43.570Z,5.40
2023-04-15T09:56:11.519Z,4.90
2023-04-15T09:58:41.804Z,3.53
2023-04-15T10:01:11.843Z,4.20
2023-04-15T10:03:42.510Z,4.57
2023-04-15T10:06:11.045Z,4.03
2023-04-15T10:08:39.364Z,4.90
2023-04-15T10:11:08.090Z,4.70
2023-04-15T10:13:37.788Z,3.90
2023-04-15T10:16:15.628Z,4.33
2023-04-15T10:18:48.297Z,5.30
2023-04-15T10:21:18.877Z,5.10
2023-04-15T10:23:47.240Z,5.93
2023-04-15T10:26:17.384Z,6.67
2023-04-15T10:28:47.492Z,6.97
2023-04-15T10:31:17.071Z,5.80
2023-04-15T10:33:46.347Z,5.60
2023-04-15T10:36:14.672Z,5.80
2023-04-15T10:38:44.067Z,5.23
2023-04-15T10:41:21.973Z,4.77
2023-04-15T10:44:08.397Z,4.03
2023-04-15T10:46:38.193Z,3.63
2023-04-15T10:49:13.258Z,3.97
2023-04-15T10:51:43.172Z,4.07
2023-04-15T10:54:14.322Z,4.10
2023-04-15T10:56:43.966Z,3.13
2023-04-15T10:59:12.217Z,3.90
2023-04-15T11:02:00.461Z,4.57
2023-04-15T11:04:47.459Z,2.50
2023-04-15T11:07:15.489Z,2.77
2023-04-15T11:09:43.448Z,2.73
2023-04-15T11:12:12.194Z,2.70
2023-04-15T11:14:40.850Z,2.70
2023-04-15T11:17:08.920Z,3.13
2023-04-15T11:19:38.568Z,2.80
2023-04-15T11:22:07.502Z,3.60
2023-04-15T11:24:36.244Z,3.03
2023-04-15T11:27:04.117Z,2.80
2023-04-15T11:29:34.690Z,3.00
2023-04-15T11:32:07.805Z,2.70
2023-04-15T11:34:36.525Z,2.87
2023-04-15T11:37:06.104Z,2.70
2023-04-15T11:39:34.599Z,2.30
2023-04-15T11:42:02.643Z,3.43
2023-04-15T11:44:30.613Z,2.77
2023-04-15T11:46:58.751Z,2.70
2023-04-15T11:49:27.899Z,2.47
2023-04-15T11:51:54.671Z,2.33
2023-04-15T11:54:21.621Z,2.37
2023-04-15T11:56:52.592Z,3.40
2023-04-15T11:59:19.423Z,2.83
2023-04-15T12:01:47.860Z,2.67
2023-04-15T12:04:16.022Z,2.80
2023-04-15T12:06:43.576Z,2.73
2023-04-15T12:09:12.147Z,2.97
2023-04-15T12:11:40.078Z,3.20
2023-04-15T12:14:10.010Z,2.80
2023-04-15T12:16:49.185Z,2.60
2023-04-15T12:19:18.448Z,2.93
2023-04-15T12:21:46.306Z,3.37
2023-04-15T12:24:13.078Z,3.00
2023-04-15T12:26:47.173Z,3.27
2023-04-15T12:29:15.488Z,3.00
2023-04-15T12:31:55.190Z,3.07
2023-04-15T12:34:28.604Z,2.50
2023-04-15T12:36:55.871Z,3.10
2023-04-15T12:39:23.796Z,2.70
2023-04-15T12:41:50.483Z,2.77
2023-04-15T12:44:17.154Z,2.53
2023-04-15T12:46:44.061Z,2.60
2023-04-15T12:49:10.871Z,2.67
2023-04-15T12:51:37.604Z,2.70
2023-04-15T12:54:04.901Z,2.30
2023-04-15T12:56:31.836Z,2.27
2023-04-15T12:58:58.606Z,2.00
2023-04-15T13:01:25.834Z,2.13
2023-04-15T13:03:52.788Z,2.23
2023-04-15T13:06:19.530Z,2.40
2023-04-15T13:08:57.412Z,2.27
2023-04-15T13:11:25.521Z,2.10
2023-04-15T13:13:53.168Z,1.87
2023-04-15T13:16:19.985Z,2.00
2023-04-15T13:18:47.171Z,2.30
2023-04-15T13:21:13.890Z,2.30
2023-04-15T13:23:43.764Z,2.20
2023-04-15T13:26:10.529Z,2.10
2023-04-15T13:28:37.632Z,2.53
2023-04-15T13:31:05.588Z,2.50
2023-04-15T13:33:32.478Z,1.80
2023-04-15T13:35:59.259Z,2.70
2023-04-15T13:38:26.354Z,2.10
2023-04-15T13:40:54.248Z,2.50
2023-04-15T13:43:21.742Z,2.30
2023-04-15T13:45:50.125Z,2.20
2023-04-15T13:48:17.134Z,1.97
2023-04-15T13:50:45.594Z,2.23
2023-04-15T13:53:12.945Z,2.10
2023-04-15T13:55:42.930Z,2.60
2023-04-15T13:58:10.111Z,2.43
2023-04-15T14:00:36.950Z,2.80
2023-04-15T14:03:04.087Z,2.90
2023-04-15T14:05:31.095Z,2.50
2023-04-15T14:07:58.799Z,2.90
2023-04-15T14:10:25.772Z,3.17
2023-04-15T14:12:52.553Z,2.60
2023-04-15T14:15:19.320Z,2.73
2023-04-15T14:17:46.174Z,2.37
2023-04-15T14:20:15.009Z,3.63
2023-04-15T14:22:43.193Z,2.67
2023-04-15T14:25:13.166Z,2.30
2023-04-15T14:27:44.156Z,1.67
2023-04-15T14:30:11.117Z,1.87
2023-04-15T14:32:37.926Z,2.33
2023-04-15T14:35:04.679Z,2.77
2023-04-15T14:37:31.571Z,2.20
2023-04-15T14:39:58.959Z,2.27
2023-04-15T14:42:25.775Z,2.40
2023-04-15T14:44:52.471Z,2.47
2023-04-15T14:47:19.238Z,2.03
2023-04-15T14:49:46.051Z,2.10
2023-04-15T14:52:12.858Z,2.20
2023-04-15T14:54:39.570Z,2.43
2023-04-15T14:57:06.447Z,2.70
2023-04-15T14:59:33.185Z,2.60
2023-04-15T15:02:00.724Z,2.60
2023-04-15T15:04:27.530Z,2.30
2023-04-15T15:06:54.966Z,2.27
2023-04-15T15:09:23.921Z,2.60
2023-04-15T15:11:51.164Z,3.70
2023-04-15T15:14:17.990Z,2.43
2023-04-15T15:16:44.770Z,2.47
2023-04-15T15:19:12.480Z,2.20
2023-04-15T15:21:39.364Z,2.60
2023-04-15T15:24:06.269Z,2.40
2023-04-15T15:26:32.990Z,2.17
2023-04-15T15:28:59.737Z,1.80
2023-04-15T15:31:26.652Z,2.07
2023-04-15T15:33:53.505Z,2.20
2023-04-15T15:36:20.182Z,1.90
2023-04-15T15:38:46.861Z,1.47
2023-04-15T15:41:13.904Z,1.70
2023-04-15T15:43:40.675Z,2.10
2023-04-15T15:46:07.354Z,1.90
2023-04-15T15:48:34.150Z,1.53
2023-04-15T15:51:01.460Z,1.73
2023-04-15T15:53:28.621Z,1.57
2023-04-15T15:55:55.339Z,1.53
2023-04-15T15:58:22.111Z,1.60
2023-04-15T16:00:49.276Z,1.50
2023-04-15T16:03:16.228Z,1.70
2023-04-15T16:05:43.114Z,1.77
2023-04-15T16:08:09.806Z,2.17
2023-04-15T16:10:38.312Z,1.90
2023-04-15T16:13:05.197Z,1.87
2023-04-15T16:15:31.976Z,1.80
2023-04-15T16:17:58.793Z,1.87
2023-04-15T16:20:25.616Z,1.70
2023-04-15T16:22:52.343Z,1.70
2023-04-15T16:25:19.070Z,1.47
2023-04-15T16:27:57.796Z,2.27
2023-04-15T16:30:30.331Z,1.60
2023-04-15T16:32:57.477Z,1.80
2023-04-15T16:35:24.656Z,2.00
2023-04-15T16:37:51.441Z,1.93
2023-04-15T16:40:18.252Z,2.07
2023-04-15T16:42:45.030Z,2.07
2023-04-15T16:45:11.806Z,2.07
2023-04-15T16:47:38.523Z,1.87
2023-04-15T16:50:05.817Z,1.70
2023-04-15T16:52:32.771Z,1.90
2023-04-15T16:54:59.562Z,1.90
2023-04-15T16:57:29.649Z,2.20
2023-04-15T17:00:13.628Z,1.83
2023-04-15T17:02:40.527Z,1.67
2023-04-15T17:05:07.710Z,1.43
2023-04-15T17:07:34.496Z,1.53
2023-04-15T17:10:04.261Z,1.77
2023-04-15T17:12:31.966Z,2.03
2023-04-15T17:14:58.768Z,1.63
2023-04-15T17:17:25.854Z,1.70
2023-04-15T17:19:52.624Z,1.50
2023-04-15T17:22:19.950Z,1.17
2023-04-15T17:24:46.867Z,1.30
2023-04-15T17:27:17.509Z,1.50
2023-04-15T17:29:45.108Z,1.57
2023-04-15T17:32:34.852Z,3.60
2023-04-15T17:35:23.300Z,1.40
2023-04-15T17:38:12.272Z,1.80
2023-04-15T17:40:59.226Z,1.50
2023-04-15T17:43:46.297Z,1.60
2023-04-15T17:46:33.021Z,1.57
2023-04-15T17:49:19.737Z,1.30
2023-04-15T17:52:06.475Z,1.40
2023-04-15T17:54:53.209Z,1.20
2023-04-15T17:57:39.903Z,1.30
2023-04-15T18:00:26.604Z,1.70
2023-04-15T18:03:13.516Z,1.50
2023-04-15T18:06:01.451Z,1.40
2023-04-15T18:08:48.642Z,1.80
2023-04-15T18:11:35.443Z,1.73
2023-04-15T18:14:33.606Z,1.37
2023-04-15T18:17:21.800Z,1.33
2023-04-15T18:20:08.663Z,1.63
2023-04-15T18:22:35.652Z,1.90
2023-04-15T18:25:05.629Z,1.53
2023-04-15T18:27:33.418Z,1.70
2023-04-15T18:30:00.426Z,2.00
2023-04-15T18:32:31.819Z,2.00
2023-04-15T18:34:59.957Z,2.07
2023-04-15T18:37:27.978Z,2.10
2023-04-15T18:39:54.855Z,2.00
2023-04-15T18:42:22.501Z,1.87
2023-04-15T18:44:50.108Z,1.90
2023-04-15T18:47:17.304Z,2.17
2023-04-15T18:49:44.534Z,2.37
2023-04-15T18:52:11.657Z,2.13
2023-04-15T18:54:38.563Z,2.90
2023-04-15T18:57:06.668Z,2.57
2023-04-15T18:59:34.615Z,3.03
2023-04-15T19:02:03.707Z,3.10
2023-04-15T19:04:30.894Z,3.30
2023-04-15T19:06:59.317Z,3.03
2023-04-15T19:09:26.880Z,3.10
2023-04-15T19:11:53.565Z,3.00
2023-04-15T19:14:20.293Z,2.60
2023-04-15T19:16:47.191Z,3.03
2023-04-15T19:19:17.063Z,2.77
2023-04-15T19:21:45.666Z,2.80
2023-04-15T19:24:12.648Z,2.60
2023-04-15T19:26:39.585Z,2.67
2023-04-15T19:29:06.710Z,2.40
2023-04-15T19:31:33.854Z,3.20
2023-04-15T19:34:01.131Z,2.43
2023-04-15T19:36:28.719Z,2.30
2023-04-15T19:38:55.584Z,2.70
2023-04-15T19:41:22.901Z,2.83
2023-04-15T19:43:49.610Z,2.40
2023-04-15T19:46:16.653Z,2.00
2023-04-15T19:48:43.830Z,2.50
2023-04-15T19:51:11.365Z,2.73
2023-04-15T19:53:38.246Z,2.60
2023-04-15T19:56:05.540Z,2.47
2023-04-15T19:58:32.778Z,2.97
2023-04-15T20:01:01.637Z,2.40
2023-04-15T20:03:28.599Z,1.97
2023-04-15T20:05:56.272Z,2.40
2023-04-15T20:08:23.157Z,3.00
2023-04-15T20:10:50.116Z,2.60
2023-04-15T20:13:17.950Z,3.13
2023-04-15T20:15:45.539Z,3.50
2023-04-15T20:18:12.660Z,2.83
2023-04-15T20:20:39.662Z,2.43
2023-04-15T20:23:07.085Z,2.60
2023-04-15T20:25:34.045Z,3.43
2023-04-15T20:28:01.155Z,3.43
2023-04-15T20:30:29.384Z,3.23
2023-04-15T20:32:56.711Z,2.90
2023-04-15T20:35:23.623Z,3.10
2023-04-15T20:37:50.712Z,3.17
2023-04-15T20:40:18.819Z,3.23
2023-04-15T20:42:46.278Z,3.67
2023-04-15T20:45:13.472Z,3.80
2023-04-15T20:47:40.898Z,3.40
2023-04-15T20:50:08.501Z,3.20
2023-04-15T20:52:35.264Z,3.07
2023-04-15T20:55:02.162Z,3.80
2023-04-15T20:57:30.425Z,3.40
2023-04-15T20:59:57.558Z,3.87
2023-04-15T21:02:25.242Z,4.37
2023-04-15T21:04:52.276Z,4.17
2023-04-15T21:07:19.818Z,4.27
2023-04-15T21:09:47.155Z,3.90
2023-04-15T21:12:14.215Z,4.37
2023-04-15T21:14:40.994Z,4.30
2023-04-15T21:17:10.859Z,4.60
2023-04-15T21:19:38.879Z,5.00
2023-04-15T21:22:05.820Z,5.10
2023-04-15T21:24:32.820Z,5.20
2023-04-15T21:26:59.525Z,4.97
2023-04-15T21:29:26.364Z,5.37
2023-04-15T21:31:53.349Z,5.03
2023-04-15T21:34:20.266Z,4.73
2023-04-15T21:36:47.141Z,5.10
2023-04-15T21:39:14.231Z,5.10
2023-04-15T21:41:41.141Z,5.33
2023-04-15T21:44:08.063Z,5.70
2023-04-15T21:46:35.887Z,5.13
2023-04-15T21:49:03.682Z,4.93
2023-04-15T21:51:31.637Z,4.47
2023-04-15T21:53:58.621Z,4.70
2023-04-15T21:56:25.572Z,4.70
2023-04-15T21:58:55.036Z,3.37
2023-04-15T22:01:22.078Z,4.50
2023-04-15T22:03:49.262Z,4.03
2023-04-15T22:06:16.497Z,4.00
2023-04-15T22:08:55.399Z,5.30
2023-04-15T22:11:27.415Z,4.70
2023-04-15T22:13:55.754Z,4.10
2023-04-15T22:16:22.518Z,4.10
2023-04-15T22:18:49.415Z,4.10
2023-04-15T22:21:16.530Z,4.10
2023-04-15T22:23:46.053Z,4.20
2023-04-15T22:26:12.807Z,3.97
2023-04-15T22:28:39.536Z,3.93
2023-04-15T22:31:06.365Z,4.10
2023-04-15T22:33:34.003Z,3.50
2023-04-15T22:36:00.959Z,4.07
2023-04-15T22:38:27.767Z,4.20
2023-04-15T22:40:54.558Z,3.90
2023-04-15T22:43:21.309Z,3.90
2023-04-15T22:45:49.324Z,3.63
2023-04-15T22:48:16.263Z,3.93
2023-04-15T22:50:43.535Z,4.20
2023-04-15T22:53:10.308Z,3.93
2023-04-15T22:55:37.028Z,3.57
2023-04-15T22:58:04.037Z,4.00
2023-04-15T23:00:30.857Z,3.70
2023-04-15T23:02:57.790Z,5.47
2023-04-15T23:05:24.776Z,4.03
2023-04-15T23:07:51.635Z,4.40
2023-04-15T23:10:18.457Z,4.63
2023-04-15T23:12:45.746Z,3.83
2023-04-15T23:15:12.521Z,4.93
2023-04-15T23:17:39.346Z,4.87
2023-04-15T23:20:06.659Z,5.37
2023-04-15T23:22:37.722Z,5.23
2023-04-15T23:25:05.617Z,5.50
2023-04-15T23:27:33.466Z,5.70
2023-04-15T23:30:00.335Z,5.43
2023-04-15T23:32:27.576Z,6.13
2023-04-15T23:34:54.380Z,5.83
2023-04-15T23:37:21.322Z,6.13
2023-04-15T23:39:48.153Z,6.70
2023-04-15T23:42:14.902Z,6.47
2023-04-15T23:44:41.675Z,6.27
2023-04-15T23:47:08.481Z,6.27
2023-04-15T23:49:36.697Z,5.87
2023-04-15T23:52:03.736Z,6.33
2023-04-15T23:54:30.565Z,6.43
2023-04-15T23:56:57.358Z,6.80
2023-04-15T23:59:24.094Z,6.77
